createdAt,value
2019-03-17T00:01:15.223Z,23.43
2019-03-17T00:06:17.162Z,21.83
2019-03-17T00:11:18.906Z,20.57
2019-03-17T00:16:20.715Z,15.00
2019-03-17T00:21:22.455Z,20.87
2019-03-17T00:26:24.738Z,19.20
2019-03-17T00:31:26.453Z,18.23
2019-03-17T00:36:28.554Z,18.47
2019-03-17T00:41:31.766Z,19.47
2019-03-17T00:46:33.662Z,27.40
2019-03-17T00:51:35.400Z,18.07
2019-03-17T00:56:37.180Z,20.40
2019-03-17T01:01:38.965Z,15.50
2019-03-17T01:06:40.736Z,17.37
2019-03-17T01:11:42.550Z,18.17
2019-03-17T01:16:44.293Z,14.77
2019-03-17T01:21:46.070Z,14.40
2019-03-17T01:26:47.854Z,17.70
2019-03-17T01:31:49.594Z,16.00
2019-03-17T01:36:51.395Z,12.30
2019-03-17T01:41:53.188Z,13.83
2019-03-17T01:46:54.954Z,15.00
2019-03-17T01:51:56.732Z,12.07
2019-03-17T01:56:58.500Z,13.83
2019-03-17T02:02:00.277Z,13.40
2019-03-17T02:07:02.050Z,15.57
2019-03-17T02:12:03.788Z,16.33
2019-03-17T02:17:05.593Z,16.33
2019-03-17T02:22:07.324Z,13.37
2019-03-17T02:27:09.157Z,15.93
2019-03-17T02:32:10.904Z,15.43
2019-03-17T02:37:12.724Z,14.03
2019-03-17T02:42:14.449Z,14.13
2019-03-17T02:47:16.274Z,18.03
2019-03-17T02:52:18.017Z,14.93
2019-03-17T02:57:19.833Z,16.57
2019-03-17T03:02:21.564Z,15.40
2019-03-17T03:07:23.385Z,13.80
2019-03-17T03:12:25.166Z,13.40
2019-03-17T03:17:26.890Z,21.33
2019-03-17T03:22:28.738Z,18.00
2019-03-17T03:27:30.482Z,14.73
2019-03-17T03:32:32.258Z,17.23
2019-03-17T03:37:33.990Z,19.80
2019-03-17T03:42:35.803Z,20.77
2019-03-17T03:47:37.577Z,20.53
2019-03-17T03:52:39.361Z,21.13
2019-03-17T03:57:41.104Z,22.73
2019-03-17T04:02:42.928Z,22.43
2019-03-17T04:07:44.693Z,22.73
2019-03-17T04:12:46.475Z,20.73
2019-03-17T04:17:48.206Z,16.77
2019-03-17T04:22:50.125Z,22.07
2019-03-17T04:27:51.900Z,22.17
2019-03-17T04:32:53.690Z,21.67
2019-03-17T04:37:55.473Z,20.73
2019-03-17T04:42:57.533Z,22.47
2019-03-17T04:47:59.310Z,25.43
2019-03-17T04:53:01.093Z,22.87
2019-03-17T04:58:02.890Z,22.77
2019-03-17T05:03:04.650Z,26.93
2019-03-17T05:08:06.426Z,24.50
2019-03-17T05:13:08.207Z,22.73
2019-03-17T05:18:09.978Z,22.10
2019-03-17T05:23:11.768Z,22.67
2019-03-17T05:28:13.516Z,23.87
2019-03-17T05:33:15.306Z,21.47
2019-03-17T05:38:17.091Z,25.90
2019-03-17T05:43:18.876Z,21.97
2019-03-17T05:48:20.628Z,22.13
2019-03-17T05:53:22.347Z,20.70
2019-03-17T05:58:24.082Z,24.43
2019-03-17T06:03:25.856Z,21.10
2019-03-17T06:08:27.640Z,25.13
2019-03-17T06:13:29.382Z,16.77
2019-03-17T06:18:31.122Z,19.00
2019-03-17T06:23:32.860Z,21.70
2019-03-17T06:28:34.645Z,20.60
2019-03-17T06:33:36.375Z,22.23
2019-03-17T06:38:38.209Z,21.00
2019-03-17T06:43:40.814Z,20.53
2019-03-17T06:48:42.581Z,20.40
2019-03-17T06:53:55.945Z,20.73
2019-03-17T06:58:47.963Z,21.77
2019-03-17T07:03:49.751Z,20.10
2019-03-17T07:08:51.518Z,12.70
2019-03-17T07:13:53.301Z,18.33
2019-03-17T07:18:55.070Z,18.00
2019-03-17T07:23:56.794Z,17.60
2019-03-17T07:28:58.621Z,12.10
2019-03-17T07:34:00.412Z,14.90
2019-03-17T07:39:11.307Z,16.33
2019-03-17T07:44:05.712Z,16.53
2019-03-17T07:49:07.476Z,15.90
2019-03-17T07:54:09.251Z,16.17
2019-03-17T07:59:11.029Z,14.17
2019-03-17T08:04:12.740Z,12.40
2019-03-17T08:09:14.581Z,13.47
2019-03-17T08:14:16.357Z,12.07
2019-03-17T08:19:18.196Z,11.50
2019-03-17T08:24:19.917Z,10.07
2019-03-17T08:29:21.684Z,14.50
2019-03-17T08:34:23.500Z,12.13
2019-03-17T08:39:25.243Z,12.17
2019-03-17T08:44:27.025Z,9.87
2019-03-17T08:49:28.786Z,9.67
2019-03-17T08:54:30.574Z,9.53
2019-03-17T08:59:32.344Z,7.10
2019-03-17T09:04:34.127Z,7.77
2019-03-17T09:09:35.910Z,8.30
2019-03-17T09:14:37.637Z,4.90
2019-03-17T09:19:39.451Z,7.57
2019-03-17T09:24:41.243Z,9.47
2019-03-17T09:29:42.991Z,7.87
2019-03-17T09:34:44.711Z,7.23
2019-03-17T09:39:46.428Z,7.60
2019-03-17T09:44:48.247Z,6.57
2019-03-17T09:49:50.014Z,8.10
2019-03-17T09:54:51.777Z,7.90
2019-03-17T09:59:53.501Z,7.17
2019-03-17T10:04:55.332Z,7.40
2019-03-17T10:09:57.117Z,5.53
2019-03-17T10:14:58.901Z,6.30
2019-03-17T10:20:00.612Z,6.17
2019-03-17T10:25:02.581Z,6.77
2019-03-17T10:30:04.713Z,7.53
2019-03-17T10:35:06.510Z,5.60
2019-03-17T10:40:09.937Z,9.10
2019-03-17T10:45:21.195Z,8.53
2019-03-17T10:50:24.371Z,8.57
2019-03-17T10:55:26.117Z,7.23
2019-03-17T11:00:27.891Z,7.40
2019-03-17T11:05:29.743Z,6.23
2019-03-17T11:10:31.476Z,4.80
2019-03-17T11:15:33.229Z,6.53
2019-03-17T11:20:34.964Z,7.73
2019-03-17T11:25:36.776Z,8.03
2019-03-17T11:30:38.513Z,5.23
2019-03-17T11:35:40.330Z,8.90
2019-03-17T11:40:42.066Z,5.17
2019-03-17T11:45:43.880Z,5.53
2019-03-17T11:50:45.608Z,4.67
2019-03-17T11:55:47.434Z,5.50
2019-03-17T12:00:49.155Z,7.90
2019-03-17T12:05:50.987Z,3.97
2019-03-17T12:10:55.717Z,4.13
2019-03-17T12:15:57.500Z,4.27
2019-03-17T12:20:59.227Z,5.97
2019-03-17T12:26:01.063Z,4.47
2019-03-17T12:31:02.790Z,2.93
2019-03-17T12:36:04.606Z,2.67
2019-03-17T12:41:06.349Z,2.77
2019-03-17T12:46:08.164Z,1.53
2019-03-17T12:51:09.901Z,3.73
2019-03-17T12:56:11.629Z,3.63
2019-03-17T13:01:13.552Z,4.83
2019-03-17T13:06:15.393Z,5.13
2019-03-17T13:11:17.145Z,4.50
2019-03-17T13:16:18.891Z,5.03
2019-03-17T13:21:20.697Z,3.13
2019-03-17T13:26:22.477Z,3.70
2019-03-17T13:31:24.252Z,4.27
2019-03-17T13:36:25.978Z,3.87
2019-03-17T13:41:27.830Z,3.17
2019-03-17T13:46:29.546Z,3.83
2019-03-17T13:51:31.364Z,3.10
2019-03-17T13:56:33.084Z,2.97
2019-03-17T14:01:34.920Z,6.23
2019-03-17T14:06:36.660Z,5.20
2019-03-17T14:11:38.465Z,6.63
2019-03-17T14:16:40.189Z,3.87
2019-03-17T14:21:42.031Z,5.87
2019-03-17T14:26:43.793Z,2.10
2019-03-17T14:31:45.593Z,4.00
2019-03-17T14:36:47.328Z,2.93
2019-03-17T14:41:49.137Z,6.30
2019-03-17T14:46:50.878Z,3.87
2019-03-17T14:51:52.700Z,2.43
2019-03-17T14:56:54.430Z,9.00
2019-03-17T15:01:56.254Z,15.27
2019-03-17T15:06:58.013Z,5.13
2019-03-17T15:11:59.797Z,5.10
2019-03-17T15:17:01.579Z,5.30
2019-03-17T15:22:03.345Z,4.00
2019-03-17T15:27:05.121Z,4.53
2019-03-17T15:32:07.188Z,5.40
2019-03-17T15:37:08.994Z,3.23
2019-03-17T15:42:10.765Z,4.90
2019-03-17T15:47:12.494Z,4.43
2019-03-17T15:52:14.312Z,4.90
2019-03-17T15:57:16.097Z,4.93
2019-03-17T16:02:17.871Z,6.50
2019-03-17T16:07:19.592Z,7.70
2019-03-17T16:12:21.417Z,4.40
2019-03-17T16:17:23.157Z,3.70
2019-03-17T16:22:24.968Z,4.33
2019-03-17T16:27:26.774Z,7.13
2019-03-17T16:32:28.523Z,4.60
2019-03-17T16:37:30.291Z,4.07
2019-03-17T16:42:32.083Z,3.63
2019-03-17T16:47:34.015Z,10.33
2019-03-17T16:52:35.758Z,5.27
2019-03-17T16:57:37.574Z,6.77
2019-03-17T17:02:39.409Z,7.97
2019-03-17T17:07:41.163Z,7.80
2019-03-17T17:12:42.934Z,8.33
2019-03-17T17:17:44.733Z,5.80
2019-03-17T17:22:46.535Z,9.37
2019-03-17T17:27:48.288Z,8.23
2019-03-17T17:32:50.057Z,5.97
2019-03-17T17:37:51.848Z,9.37
2019-03-17T17:42:53.623Z,7.97
2019-03-17T17:47:55.357Z,8.67
2019-03-17T17:52:57.167Z,7.47
2019-03-17T17:57:59.161Z,7.17
2019-03-17T18:03:01.027Z,6.20
2019-03-17T18:08:02.807Z,10.63
2019-03-17T18:13:04.566Z,6.93
2019-03-17T18:18:06.359Z,8.77
2019-03-17T18:23:17.383Z,10.70
2019-03-17T18:28:11.738Z,9.93
2019-03-17T18:33:13.498Z,7.57
2019-03-17T18:38:15.298Z,11.03
2019-03-17T18:43:17.073Z,10.13
2019-03-17T18:48:18.865Z,11.10
2019-03-17T18:53:20.590Z,8.73
2019-03-17T18:58:22.402Z,11.73
2019-03-17T19:03:24.184Z,9.70
2019-03-17T19:08:25.960Z,10.00
2019-03-17T19:13:27.690Z,12.20
2019-03-17T19:18:29.518Z,12.93
2019-03-17T19:23:31.286Z,13.77
2019-03-17T19:28:33.066Z,13.17
2019-03-17T19:33:36.285Z,13.67
2019-03-17T19:38:38.242Z,15.23
2019-03-17T19:43:40.030Z,16.63
2019-03-17T19:48:41.779Z,19.13
2019-03-17T19:53:43.593Z,17.93
2019-03-17T19:58:45.358Z,17.50
2019-03-17T20:03:47.143Z,19.50
2019-03-17T20:08:48.862Z,17.70
2019-03-17T20:13:50.693Z,17.10
2019-03-17T20:18:52.437Z,17.93
2019-03-17T20:23:54.249Z,17.03
2019-03-17T20:28:55.994Z,17.63
2019-03-17T20:33:57.829Z,17.03
2019-03-17T20:38:59.577Z,20.23
2019-03-17T20:44:01.358Z,20.47
2019-03-17T20:49:03.114Z,19.87
2019-03-17T20:54:04.919Z,18.30
2019-03-17T20:59:06.653Z,17.10
2019-03-17T21:04:08.464Z,22.47
2019-03-17T21:09:10.194Z,21.23
2019-03-17T21:14:12.337Z,26.97
2019-03-17T21:19:14.421Z,22.37
2019-03-17T21:24:16.202Z,23.33
2019-03-17T21:29:17.953Z,20.13
2019-03-17T21:34:20.596Z,18.57
2019-03-17T21:39:22.304Z,18.53
2019-03-17T21:44:24.109Z,18.60
2019-03-17T21:49:25.878Z,17.07
2019-03-17T21:54:27.705Z,15.60
2019-03-17T21:59:29.546Z,15.13
2019-03-17T22:04:31.418Z,13.73
2019-03-17T22:09:33.371Z,14.50
2019-03-17T22:14:35.180Z,21.17
2019-03-17T22:19:36.954Z,19.47
2019-03-17T22:24:38.733Z,13.93
2019-03-17T22:29:43.578Z,16.87
2019-03-17T22:34:45.356Z,14.97
2019-03-17T22:39:47.130Z,5.67
2019-03-17T22:44:48.922Z,6.73
2019-03-17T22:49:50.686Z,5.83
2019-03-17T22:54:52.453Z,4.43
2019-03-17T22:59:54.197Z,3.93
2019-03-17T23:04:56.033Z,2.90
2019-03-17T23:09:57.781Z,4.37
2019-03-17T23:14:59.560Z,3.13
2019-03-17T23:20:01.315Z,3.87
2019-03-17T23:25:03.238Z,2.57
2019-03-17T23:30:05.323Z,2.07
2019-03-17T23:35:07.693Z,2.53
2019-03-17T23:40:10.158Z,3.33
2019-03-17T23:45:12.077Z,3.90
2019-03-17T23:50:13.859Z,3.00
2019-03-17T23:55:15.613Z,1.80
